Time;durP1;ratioP1;P1;durP2;ratioP2;P2;SDS_P1;SDS_P2;PMS_P1;PMS_P2;Temp;Humidity;BMP_temperature;BMP_pressure;BME280_temperature;BME280_humidity;BME280_pressure;Samples;Min_cycle;Max_cycle;Signal;HPM_P1;HPM_P2
2023/12/02 00:01:21;;;;;;;31.35;18.85;;;;;;;1.58;63.86;100337.13;5048840;28;20041;-63
2023/12/02 00:03:48;;;;;;;35.50;21.08;;;;;;;2.02;63.76;100340.28;5045467;28;20053;-62
2023/12/02 00:06:15;;;;;;;33.28;20.30;;;;;;;2.04;63.14;100340.84;5051815;28;20053;-63
2023/12/02 00:08:43;;;;;;;35.42;19.85;;;;;;;1.98;63.69;100342.72;5043291;28;20079;-63
2023/12/02 00:11:11;;;;;;;35.63;20.60;;;;;;;2.03;63.04;100348.16;5050041;28;20063;-63
2023/12/02 00:13:38;;;;;;;33.25;19.45;;;;;;;2.14;62.80;100347.09;5046032;28;20049;-63
2023/12/02 00:16:06;;;;;;;32.72;18.95;;;;;;;2.02;61.95;100351.94;5051238;28;20052;-62
2023/12/02 00:18:33;;;;;;;30.88;18.58;;;;;;;1.91;61.65;100342.16;5052510;28;20060;-63
2023/12/02 00:21:00;;;;;;;37.47;19.30;;;;;;;1.63;62.33;100339.03;5052022;28;20052;-62
2023/12/02 00:23:27;;;;;;;32.28;19.58;;;;;;;2.02;62.65;100343.00;5045817;28;20048;-62
2023/12/02 00:25:55;;;;;;;32.33;19.52;;;;;;;2.00;61.85;100354.16;5051110;28;20060;-63
2023/12/02 00:28:22;;;;;;;32.03;20.15;;;;;;;1.80;62.70;100354.03;5048439;28;20052;-62
2023/12/02 00:30:50;;;;;;;34.78;20.65;;;;;;;1.85;62.84;100359.50;5051010;28;20494;-63
2023/12/02 00:33:17;;;;;;;37.38;21.60;;;;;;;1.64;63.08;100356.97;5056138;28;20052;-62
2023/12/02 00:35:44;;;;;;;36.35;21.55;;;;;;;1.69;63.30;100354.28;5051602;28;20552;-62
2023/12/02 00:38:12;;;;;;;36.42;20.95;;;;;;;1.84;63.09;100352.44;5049750;28;20059;-63
2023/12/02 00:40:39;;;;;;;36.35;21.67;;;;;;;1.62;62.94;100357.19;5051892;28;20041;-62
2023/12/02 00:43:06;;;;;;;34.28;21.45;;;;;;;1.64;62.64;100346.91;5050475;28;20045;-63
2023/12/02 00:45:33;;;;;;;36.97;21.35;;;;;;;1.86;62.04;100354.88;5050000;28;20520;-62
2023/12/02 00:48:01;;;;;;;34.80;19.70;;;;;;;1.47;62.32;100356.31;5051755;28;20045;-62
2023/12/02 00:50:28;;;;;;;35.40;21.52;;;;;;;1.62;63.46;100343.63;5051357;28;20048;-63
2023/12/02 00:52:56;;;;;;;35.20;22.02;;;;;;;1.90;63.28;100345.94;5054288;28;20056;-64
2023/12/02 00:55:23;;;;;;;35.88;22.27;;;;;;;2.00;62.99;100356.84;5051213;28;20056;-62
2023/12/02 00:57:51;;;;;;;33.30;20.25;;;;;;;1.55;63.12;100348.47;5054969;28;20041;-63
2023/12/02 01:00:18;;;;;;;38.85;21.25;;;;;;;1.83;62.82;100353.50;5050517;28;20049;-62
2023/12/02 01:02:45;;;;;;;34.20;20.30;;;;;;;1.69;62.31;100344.22;5051597;28;20056;-62
2023/12/02 01:05:13;;;;;;;34.90;20.48;;;;;;;1.72;62.59;100349.13;5051209;28;20049;-62
2023/12/02 01:07:41;;;;;;;37.85;20.65;;;;;;;1.74;62.01;100346.16;5054237;28;20057;-62
2023/12/02 01:10:11;;;;;;;31.73;19.27;;;;;;;1.90;62.09;100340.50;5054557;28;20057;-62
2023/12/02 01:12:39;;;;;;;34.30;20.30;;;;;;;1.79;61.93;100354.31;5059428;28;20057;-64
2023/12/02 01:15:07;;;;;;;32.42;20.15;;;;;;;1.77;62.33;100346.44;5064032;28;20052;-62
2023/12/02 01:17:34;;;;;;;33.58;19.98;;;;;;;1.55;63.36;100353.91;5059288;28;20076;-63
2023/12/02 01:20:01;;;;;;;33.60;19.35;;;;;;;1.22;63.70;100369.72;5060000;28;20443;-63
2023/12/02 01:22:29;;;;;;;36.13;21.92;;;;;;;1.32;63.92;100365.19;5053438;28;20068;-63
2023/12/02 01:24:56;;;;;;;29.48;19.60;;;;;;;1.26;64.20;100366.22;5053515;28;20053;-63
2023/12/02 01:27:23;;;;;;;29.30;18.35;;;;;;;1.31;63.39;100373.59;5054079;28;20060;-62
2023/12/02 01:29:50;;;;;;;28.73;17.27;;;;;;;1.35;62.47;100372.78;5053054;28;20048;-62
2023/12/02 01:32:18;;;;;;;31.05;17.80;;;;;;;1.48;61.42;100385.09;5053438;28;20052;-63
2023/12/02 01:34:46;;;;;;;30.77;17.00;;;;;;;1.48;61.79;100376.94;5047895;28;20048;-63
2023/12/02 01:37:13;;;;;;;29.55;18.38;;;;;;;1.64;61.78;100378.69;5052378;28;20060;-62
2023/12/02 01:39:40;;;;;;;29.40;17.60;;;;;;;1.50;61.88;100374.78;5054998;28;20056;-61
2023/12/02 01:42:07;;;;;;;31.05;18.08;;;;;;;1.56;61.94;100382.69;5058308;28;20040;-62
2023/12/02 01:44:35;;;;;;;33.33;17.85;;;;;;;1.56;61.50;100379.97;5054465;28;20147;-61
2023/12/02 01:47:03;;;;;;;32.70;18.17;;;;;;;1.60;62.14;100383.81;5054168;28;20056;-61
2023/12/02 01:49:32;;;;;;;30.50;17.83;;;;;;;1.62;62.55;100386.25;5052102;28;20072;-61
2023/12/02 01:51:59;;;;;;;34.35;19.90;;;;;;;1.74;62.45;100400.44;5053177;28;20052;-61
2023/12/02 01:54:26;;;;;;;31.95;19.17;;;;;;;1.67;63.11;100399.84;5053943;28;20057;-62
2023/12/02 01:56:54;;;;;;;32.58;18.50;;;;;;;1.99;62.19;100412.25;5058258;28;20037;-61
2023/12/02 01:59:29;;;;;;;34.28;19.48;;;;;;;1.55;62.80;100412.81;5054601;28;20056;-62
2023/12/02 02:02:00;;;;;;;32.83;19.52;;;;;;;1.75;62.92;100413.75;5054327;28;20044;-62
2023/12/02 02:04:28;;;;;;;33.95;19.63;;;;;;;1.82;62.92;100417.06;5051853;28;20048;-61
2023/12/02 02:06:55;;;;;;;34.03;20.42;;;;;;;1.64;62.87;100416.69;5053990;28;20056;-62
2023/12/02 02:09:22;;;;;;;34.35;20.35;;;;;;;1.69;63.08;100438.44;5054332;28;20057;-60
2023/12/02 02:11:50;;;;;;;33.72;19.45;;;;;;;1.46;63.68;100436.91;5054264;28;20663;-62
2023/12/02 02:14:19;;;;;;;32.85;20.17;;;;;;;1.72;62.79;100438.72;5069135;28;20071;-62
2023/12/02 02:16:47;;;;;;;33.17;18.77;;;;;;;1.54;62.61;100439.13;5068564;28;20048;-62
2023/12/02 02:19:17;;;;;;;33.97;20.75;;;;;;;1.71;63.22;100453.34;5051509;28;20053;-61
2023/12/02 02:21:45;;;;;;;37.63;21.80;;;;;;;1.56;63.69;100449.72;5052324;28;20156;-62
2023/12/02 02:24:12;;;;;;;33.05;19.80;;;;;;;1.89;63.38;100444.78;5053858;28;20056;-61
2023/12/02 02:26:39;;;;;;;34.20;20.10;;;;;;;1.68;63.29;100448.47;5053532;28;20052;-62
2023/12/02 02:29:06;;;;;;;38.88;22.55;;;;;;;1.39;64.35;100454.50;5052510;28;20048;-62
2023/12/02 02:31:34;;;;;;;34.75;21.15;;;;;;;1.30;64.72;100450.63;5050809;28;20065;-61
2023/12/02 02:34:01;;;;;;;37.17;20.92;;;;;;;1.27;65.34;100457.38;5057731;28;20040;-61
2023/12/02 02:36:28;;;;;;;35.42;19.88;;;;;;;1.09;65.80;100490.31;5052286;28;20060;-61
2023/12/02 02:38:55;;;;;;;38.58;21.92;;;;;;;1.14;66.29;100465.94;5053436;28;20080;-62
2023/12/02 02:41:23;;;;;;;36.88;20.73;;;;;;;1.07;65.90;100477.00;5050858;28;20041;-62
2023/12/02 02:43:50;;;;;;;36.25;20.17;;;;;;;1.24;65.16;100470.66;5055052;28;20500;-62
2023/12/02 02:46:18;;;;;;;37.22;21.98;;;;;;;1.16;65.04;100480.06;5046335;28;20049;-62
2023/12/02 02:48:45;;;;;;;35.70;21.05;;;;;;;1.14;65.42;100472.19;5052744;28;20052;-62
2023/12/02 02:51:13;;;;;;;36.47;21.25;;;;;;;1.02;65.02;100478.84;5054885;28;20056;-62
2023/12/02 02:53:40;;;;;;;40.42;22.98;;;;;;;1.24;65.06;100471.44;5050134;28;20052;-62
2023/12/02 02:56:09;;;;;;;41.53;22.40;;;;;;;1.11;65.41;100478.16;5052855;28;20049;-62
2023/12/02 02:58:36;;;;;;;38.70;22.17;;;;;;;1.22;65.14;100495.31;5051535;28;20049;-62
2023/12/02 03:01:04;;;;;;;43.90;23.02;;;;;;;1.09;65.30;100501.97;5045652;28;20045;-61
2023/12/02 03:03:31;;;;;;;38.92;22.13;;;;;;;1.18;65.71;100505.03;5052697;28;20053;-64
2023/12/02 03:05:59;;;;;;;39.47;22.15;;;;;;;1.21;65.29;100493.69;5032721;28;20055;-62
2023/12/02 03:08:26;;;;;;;39.72;23.08;;;;;;;0.96;66.27;100491.53;5051667;28;20053;-62
2023/12/02 03:10:53;;;;;;;40.42;23.30;;;;;;;0.80;66.98;100499.78;5049111;28;20052;-63
2023/12/02 03:13:20;;;;;;;44.95;24.30;;;;;;;0.79;67.53;100490.00;5052595;28;20083;-63
2023/12/02 03:15:48;;;;;;;41.85;23.40;;;;;;;0.72;68.48;100502.94;5051126;28;20057;-61
2023/12/02 03:18:15;;;;;;;42.13;23.83;;;;;;;0.99;67.61;100482.09;5058553;28;20056;-62
2023/12/02 03:20:42;;;;;;;48.08;24.30;;;;;;;1.28;67.01;100477.19;5052414;28;20056;-62
2023/12/02 03:23:09;;;;;;;41.85;23.75;;;;;;;1.40;66.15;100486.78;5057557;28;20048;-61
2023/12/02 03:25:37;;;;;;;41.45;23.67;;;;;;;1.02;67.26;100495.13;5043188;28;20045;-62
2023/12/02 03:28:04;;;;;;;40.25;23.05;;;;;;;1.25;67.23;100494.81;5049516;28;20048;-61
2023/12/02 03:30:31;;;;;;;38.60;21.73;;;;;;;1.00;66.47;100508.09;5050848;28;20064;-61
2023/12/02 03:32:59;;;;;;;41.25;23.90;;;;;;;0.86;67.07;100499.56;5057993;28;20045;-62
2023/12/02 03:35:26;;;;;;;41.13;22.13;;;;;;;1.12;66.87;100504.19;5055187;28;20052;-63
2023/12/02 03:37:54;;;;;;;43.88;23.75;;;;;;;0.86;67.47;100498.75;5057602;28;20060;-61
2023/12/02 03:40:21;;;;;;;46.00;23.48;;;;;;;0.88;67.34;100507.44;5051403;28;20049;-62
2023/12/02 03:42:48;;;;;;;43.67;23.33;;;;;;;1.07;66.68;100503.31;5052341;28;20053;-62
2023/12/02 03:45:15;;;;;;;42.65;24.20;;;;;;;0.97;67.54;100508.63;5050741;28;20059;-61
2023/12/02 03:47:43;;;;;;;44.42;23.60;;;;;;;0.79;67.95;100520.63;5052727;28;20055;-62
2023/12/02 03:50:10;;;;;;;45.35;24.27;;;;;;;0.54;68.37;100514.13;5051576;28;20064;-61
2023/12/02 03:52:39;;;;;;;44.97;24.98;;;;;;;0.57;68.91;100522.56;5054109;28;20060;-62
2023/12/02 03:55:07;;;;;;;44.83;24.13;;;;;;;0.73;69.34;100523.56;5057983;28;20439;-63
2023/12/02 03:57:34;;;;;;;40.83;24.10;;;;;;;0.58;68.23;100523.34;5051902;28;20053;-62
2023/12/02 04:00:10;;;;;;;43.17;24.38;;;;;;;0.60;69.01;100529.34;5050122;28;20048;-62
2023/12/02 04:02:39;;;;;;;42.92;24.30;;;;;;;0.68;68.41;100524.28;5044251;28;20055;-62
2023/12/02 04:05:11;;;;;;;42.45;24.10;;;;;;;0.58;67.99;100523.34;5044548;28;20045;-64
2023/12/02 04:07:38;;;;;;;42.50;24.58;;;;;;;0.63;68.26;100526.94;5054779;28;20053;-63
2023/12/02 04:10:06;;;;;;;45.30;24.80;;;;;;;0.66;68.31;100529.16;5051459;28;20072;-63
2023/12/02 04:12:34;;;;;;;42.80;24.92;;;;;;;0.86;67.84;100534.81;5050411;28;20053;-63
2023/12/02 04:15:01;;;;;;;41.03;23.63;;;;;;;0.70;68.28;100535.72;5051849;28;20056;-62
2023/12/02 04:17:29;;;;;;;43.40;24.95;;;;;;;0.51;69.45;100533.56;5050857;28;20049;-62
2023/12/02 04:19:56;;;;;;;46.88;26.38;;;;;;;0.52;70.15;100548.78;5057189;28;20053;-61
2023/12/02 04:22:24;;;;;;;47.92;27.65;;;;;;;0.75;69.72;100545.81;5052357;28;20053;-62
2023/12/02 04:24:54;;;;;;;;;;;;;;;0.91;69.71;100550.31;5052099;28;20432;-63
2023/12/02 04:27:21;;;;;;;49.75;26.35;;;;;;;0.51;71.22;100547.13;5051691;28;19921;-62
2023/12/02 04:29:48;;;;;;;50.47;27.25;;;;;;;0.39;72.57;100558.09;5051793;28;20511;-63
2023/12/02 04:32:15;;;;;;;48.38;26.70;;;;;;;0.70;71.88;100564.69;5051603;28;20580;-63
2023/12/02 04:34:43;;;;;;;51.30;27.60;;;;;;;0.42;72.63;100565.69;5059165;28;20060;-63
2023/12/02 04:37:10;;;;;;;49.83;27.33;;;;;;;0.30;72.76;100572.31;5052256;28;20048;-62
2023/12/02 04:39:37;;;;;;;52.88;28.63;;;;;;;0.18;74.29;100571.56;5054726;28;20519;-62
2023/12/02 04:42:05;;;;;;;54.13;28.52;;;;;;;0.19;73.42;100567.81;5042622;28;20408;-63
2023/12/02 04:44:33;;;;;;;50.80;27.30;;;;;;;0.06;74.40;100576.28;5054888;28;20543;-61
2023/12/02 04:47:00;;;;;;;51.45;27.25;;;;;;;0.25;74.12;100583.88;5055422;28;20045;-64
2023/12/02 04:49:28;;;;;;;49.67;27.42;;;;;;;0.09;75.34;100581.22;5056572;28;20045;-63
2023/12/02 04:51:55;;;;;;;56.47;30.02;;;;;;;-0.09;76.63;100587.72;5055423;28;20064;-63
2023/12/02 04:54:22;;;;;;;50.83;28.45;;;;;;;0.20;75.99;100591.94;5054583;28;20060;-63
2023/12/02 04:56:49;;;;;;;56.95;29.30;;;;;;;-0.04;76.38;100593.19;5055261;28;20049;-63
2023/12/02 04:59:17;;;;;;;57.80;28.73;;;;;;;0.10;76.72;100599.09;5055056;28;20045;-62
2023/12/02 05:01:44;;;;;;;56.45;28.70;;;;;;;-0.15;78.91;100616.59;5054388;28;20060;-62
2023/12/02 05:04:11;;;;;;;55.20;29.30;;;;;;;0.03;79.09;100607.41;5054318;28;20626;-63
2023/12/02 05:06:39;;;;;;;56.78;29.98;;;;;;;-0.26;78.21;100620.19;5051908;28;20064;-62
2023/12/02 05:09:08;;;;;;;56.75;29.65;;;;;;;-0.21;79.62;100630.28;5043955;28;20045;-62
2023/12/02 05:11:35;;;;;;;57.28;29.52;;;;;;;-0.24;79.66;100639.69;5050896;28;20065;-62
2023/12/02 05:14:02;;;;;;;59.40;30.38;;;;;;;-0.39;80.74;100633.22;5057805;28;20045;-63
2023/12/02 05:16:29;;;;;;;55.80;30.45;;;;;;;-0.07;80.34;100637.03;5055099;28;20041;-62
2023/12/02 05:18:57;;;;;;;61.75;30.75;;;;;;;0.16;79.14;100638.75;5055769;28;20049;-63
2023/12/02 05:21:24;;;;;;;61.50;32.25;;;;;;;0.06;79.87;100638.56;5055144;28;20152;-62
2023/12/02 05:23:52;;;;;;;56.92;30.63;;;;;;;-0.08;80.02;100644.31;5056332;28;20060;-61
2023/12/02 05:26:19;;;;;;;56.38;30.95;;;;;;;-0.12;80.63;100645.03;5054723;28;20056;-62
2023/12/02 05:28:46;;;;;;;58.70;30.75;;;;;;;-0.14;80.91;100653.41;5055097;28;20052;-62
2023/12/02 05:31:13;;;;;;;61.33;32.20;;;;;;;-0.30;81.16;100648.78;5054793;28;20052;-61
2023/12/02 05:33:41;;;;;;;58.80;31.88;;;;;;;-0.17;81.24;100653.06;5053548;28;20044;-61
2023/12/02 05:36:09;;;;;;;58.92;32.42;;;;;;;-0.23;81.81;100654.84;5046517;28;20052;-62
2023/12/02 05:38:37;;;;;;;58.25;31.38;;;;;;;-0.33;82.43;100662.81;5053542;28;20053;-62
2023/12/02 05:41:05;;;;;;;63.45;30.92;;;;;;;-0.45;83.19;100670.16;5054271;28;20071;-62
2023/12/02 05:43:32;;;;;;;61.88;32.53;;;;;;;-0.64;84.17;100676.84;5054377;28;21644;-62
2023/12/02 05:45:59;;;;;;;63.40;33.60;;;;;;;-0.37;84.02;100680.63;5048945;28;20060;-62
2023/12/02 05:48:27;;;;;;;64.45;33.15;;;;;;;-0.26;83.19;100685.13;5068009;28;20044;-62
2023/12/02 05:50:55;;;;;;;59.88;32.22;;;;;;;-0.30;83.17;100692.06;5068952;28;20273;-61
2023/12/02 05:53:23;;;;;;;67.85;33.95;;;;;;;-0.59;83.80;100687.75;5052216;28;20092;-62
2023/12/02 05:55:50;;;;;;;67.65;31.98;;;;;;;-0.37;84.11;100691.44;5048177;28;20536;-61
2023/12/02 05:58:17;;;;;;;63.80;34.15;;;;;;;-0.25;83.70;100699.50;5052790;28;20049;-62
2023/12/02 06:00:44;;;;;;;67.05;33.85;;;;;;;-0.36;83.11;100697.66;5047145;28;20431;-61
2023/12/02 06:03:12;;;;;;;64.30;34.03;;;;;;;-0.42;84.40;100709.47;5053357;28;20060;-62
2023/12/02 06:05:39;;;;;;;64.75;33.85;;;;;;;-0.48;84.34;100716.66;5051288;28;20049;-62
2023/12/02 06:08:07;;;;;;;69.85;33.85;;;;;;;-0.26;83.79;100714.06;5043822;28;20064;-63
2023/12/02 06:10:34;;;;;;;66.38;34.58;;;;;;;-0.50;84.02;100726.88;5053509;28;20056;-62
2023/12/02 06:13:01;;;;;;;65.05;34.30;;;;;;;-0.59;84.17;100731.03;5055806;28;20415;-62
2023/12/02 06:15:28;;;;;;;68.07;34.67;;;;;;;-0.66;84.72;100727.63;5025391;28;20508;-62
2023/12/02 06:17:57;;;;;;;71.22;35.40;;;;;;;-0.45;84.23;100729.69;5052429;28;20048;-62
2023/12/02 06:20:24;;;;;;;72.10;34.28;;;;;;;-0.42;83.86;100741.94;5053858;28;20456;-65
2023/12/02 06:22:53;;;;;;;72.57;34.38;;;;;;;-0.63;84.73;100742.56;5053806;28;20037;-62
2023/12/02 06:25:20;;;;;;;74.80;36.45;;;;;;;-0.60;85.33;100745.63;5053842;28;20049;-62
2023/12/02 06:27:47;;;;;;;71.07;36.28;;;;;;;-0.42;84.94;100753.53;5057235;28;20052;-62
2023/12/02 06:30:16;;;;;;;72.85;37.30;;;;;;;-0.56;85.38;100749.47;5054953;28;20504;-62
2023/12/02 06:32:43;;;;;;;71.82;35.67;;;;;;;-0.51;85.15;100756.88;5057167;28;20056;-63
2023/12/02 06:35:12;;;;;;;66.88;34.55;;;;;;;-0.57;85.64;100753.25;5056176;28;20552;-63
2023/12/02 06:37:39;;;;;;;70.22;35.25;;;;;;;-0.75;86.72;100758.81;5053582;28;20048;-62
2023/12/02 06:40:07;;;;;;;69.55;36.35;;;;;;;-0.51;86.41;100760.41;5052330;28;20044;-63
2023/12/02 06:42:34;;;;;;;72.40;35.72;;;;;;;-0.43;85.15;100770.84;5054435;28;20064;-63
2023/12/02 06:45:02;;;;;;;67.53;35.00;;;;;;;-0.54;84.47;100766.28;5052992;28;20056;-62
2023/12/02 06:47:29;;;;;;;71.03;37.22;;;;;;;-0.72;85.78;100774.59;5051788;28;20269;-63
2023/12/02 06:49:57;;;;;;;69.28;34.95;;;;;;;-0.70;85.58;100768.94;5053331;28;20096;-61
2023/12/02 06:52:24;;;;;;;76.45;36.92;;;;;;;-0.67;86.34;100771.16;5053166;28;20142;-62
2023/12/02 06:54:51;;;;;;;72.28;35.55;;;;;;;-0.46;85.76;100776.75;5053462;28;20052;-62
2023/12/02 06:57:21;;;;;;;73.68;36.75;;;;;;;-0.39;84.50;100782.84;5057245;28;20044;-65
2023/12/02 06:59:49;;;;;;;67.43;35.33;;;;;;;-0.63;84.93;100785.84;5053263;28;20110;-63
2023/12/02 07:02:41;;;;;;;69.70;36.75;;;;;;;-0.44;85.09;100784.63;5052626;28;20049;-64
2023/12/02 07:06:07;;;;;;;71.97;36.42;;;;;;;-0.51;84.19;100795.59;5002189;28;20058;-62
2023/12/02 07:09:20;;;;;;;71.38;36.42;;;;;;;-0.74;85.62;100803.75;5021571;28;20579;-62
2023/12/02 07:12:20;;;;;;;70.85;35.55;;;;;;;-0.36;85.13;100811.28;5047001;28;20060;-64
2023/12/02 07:20:00;;;;;;;69.75;35.78;;;;;;;-0.76;84.33;100821.25;4977600;28;20058;-64
2023/12/02 07:22:28;;;;;;;69.72;35.83;;;;;;;-0.52;84.51;100834.50;4952285;28;20047;-63
2023/12/02 07:24:56;;;;;;;76.22;37.60;;;;;;;-0.38;82.84;100835.06;4991680;28;20045;-63
2023/12/02 07:27:23;;;;;;;73.03;36.45;;;;;;;-0.38;82.14;100835.06;4971728;28;20065;-63
2023/12/02 07:29:55;;;;;;;68.20;34.20;;;;;;;-0.14;82.49;100826.63;4989718;28;20074;-62
2023/12/02 07:32:26;;;;;;;72.38;35.50;;;;;;;-0.28;81.49;100843.41;4990391;28;20062;-63
2023/12/02 07:34:54;;;;;;;73.25;34.95;;;;;;;-0.28;82.17;100848.81;4980570;28;20500;-64
2023/12/02 07:37:34;;;;;;;;;;;;;;;-0.84;84.31;100856.78;4973535;28;20050;-63
2023/12/02 07:40:04;;;;;;;72.88;37.03;;;;;;;-0.89;85.50;100854.75;4990359;28;19922;-63
2023/12/02 07:42:32;;;;;;;68.93;35.60;;;;;;;-0.52;85.00;100853.44;4956309;28;20069;-62
2023/12/02 07:45:07;;;;;;;72.18;35.88;;;;;;;-0.57;84.19;100853.34;4989633;28;20442;-63
2023/12/02 07:47:35;;;;;;;73.20;36.00;;;;;;;-0.36;83.60;100851.88;4987789;28;20509;-62
2023/12/02 07:50:03;;;;;;;70.45;35.70;;;;;;;-0.48;82.45;100860.03;4964745;28;20054;-64
2023/12/02 07:52:30;;;;;;;72.45;35.78;;;;;;;-0.38;82.81;100862.94;4982060;28;20517;-64
2023/12/02 07:55:07;;;;;;;75.95;36.22;;;;;;;-0.91;84.83;100865.00;5013485;28;20064;-63
2023/12/02 07:57:35;;;;;;;73.40;36.55;;;;;;;-0.52;85.24;100855.31;5052301;28;20068;-63
2023/12/02 08:00:07;;;;;;;75.20;37.67;;;;;;;-0.47;84.53;100863.56;5040989;28;20503;-63
2023/12/02 08:02:56;;;;;;;78.50;36.25;;;;;;;-0.50;83.13;100864.84;5046048;28;20048;-62
2023/12/02 08:05:24;;;;;;;75.78;38.67;;;;;;;-0.91;85.23;100883.94;5050196;28;20045;-63
2023/12/02 08:07:54;;;;;;;75.60;39.20;;;;;;;-0.80;85.42;100885.78;5056887;28;20029;-62
2023/12/02 08:10:22;;;;;;;72.53;37.08;;;;;;;-0.63;86.34;100896.75;5052616;28;20041;-63
2023/12/02 08:12:50;;;;;;;73.75;36.72;;;;;;;-0.64;86.33;100895.06;5053934;28;20053;-62
2023/12/02 08:15:19;;;;;;;76.65;37.63;;;;;;;-0.82;86.36;100898.72;5048698;28;20044;-62
2023/12/02 08:17:49;;;;;;;81.32;38.65;;;;;;;-0.65;87.40;100906.97;5029474;28;20044;-63
2023/12/02 08:20:17;;;;;;;73.38;36.90;;;;;;;-0.78;87.26;100909.88;5050715;28;20045;-63
2023/12/02 08:22:46;;;;;;;71.25;36.75;;;;;;;-0.63;87.54;100915.69;5049865;28;20049;-64
2023/12/02 08:25:13;;;;;;;69.13;36.10;;;;;;;-0.23;88.38;100911.16;5047852;28;20497;-61
2023/12/02 08:27:40;;;;;;;71.45;35.85;;;;;;;-0.31;86.46;100917.75;5048026;28;20064;-62
2023/12/02 08:30:08;;;;;;;70.68;35.80;;;;;;;-0.23;86.50;100913.88;5031674;28;20045;-63
2023/12/02 08:35:31;;;;;;;71.57;34.38;;;;;;;0.03;86.79;100921.47;5049558;28;20037;-62
2023/12/02 08:37:58;;;;;;;72.18;36.35;;;;;;;-0.04;86.73;100924.31;5049379;28;20060;-66
2023/12/02 08:40:26;;;;;;;71.13;36.55;;;;;;;0.04;86.00;100931.22;5051317;28;20057;-66
2023/12/02 08:42:53;;;;;;;73.00;36.17;;;;;;;0.34;85.69;100937.25;5032696;28;20060;-67
2023/12/02 08:45:20;;;;;;;71.22;37.17;;;;;;;0.09;85.47;100944.06;5049032;28;20049;-67
2023/12/02 08:47:48;;;;;;;71.32;36.50;;;;;;;0.20;85.32;100946.72;5049606;28;20048;-67
2023/12/02 08:50:16;;;;;;;69.32;34.58;;;;;;;-0.02;85.55;100945.72;5047313;28;20049;-62
2023/12/02 08:52:46;;;;;;;69.63;36.00;;;;;;;0.21;85.87;100950.28;5048243;28;20048;-64
2023/12/02 08:55:13;;;;;;;68.75;35.90;;;;;;;0.37;85.51;100958.44;5033501;28;20080;-63
2023/12/02 08:57:41;;;;;;;66.93;33.45;;;;;;;0.21;84.26;100961.09;5049048;28;20045;-63
2023/12/02 09:00:09;;;;;;;73.55;36.45;;;;;;;0.16;85.93;100961.81;5032413;28;20057;-63
2023/12/02 09:02:36;;;;;;;78.80;35.60;;;;;;;0.14;84.84;100968.53;5048129;28;20576;-64
2023/12/02 09:05:05;;;;;;;74.72;35.88;;;;;;;0.17;84.96;100968.06;5046820;28;20057;-63
2023/12/02 09:07:32;;;;;;;75.40;36.47;;;;;;;0.33;84.99;100970.81;5049732;28;20066;-63
2023/12/02 09:10:00;;;;;;;74.63;35.28;;;;;;;0.35;85.33;100978.72;5042467;28;20057;-62
2023/12/02 09:12:27;;;;;;;75.63;35.20;;;;;;;0.18;85.72;100985.94;5038793;28;20069;-64
2023/12/02 09:15:20;;;;;;;75.85;35.25;;;;;;;0.01;85.18;100980.44;5015077;28;20053;-62
2023/12/02 09:18:09;;;;;;;71.28;35.00;;;;;;;0.21;86.27;100983.56;5014171;28;20045;-64
2023/12/02 09:20:45;;;;;;;72.78;33.55;;;;;;;-0.05;85.35;101008.47;5050464;28;20566;-62
2023/12/02 09:23:16;;;;;;;75.65;36.28;;;;;;;-0.04;85.36;101005.53;5048633;28;20063;-67
2023/12/02 09:25:47;;;;;;;;;;;;;;;0.01;85.56;100999.41;5032088;28;20041;-66
2023/12/02 09:28:29;;;;;;;71.78;35.05;;;;;;;0.05;84.91;101008.72;5044846;28;19924;-65
2023/12/02 09:31:04;;;;;;;74.13;36.40;;;;;;;0.14;85.72;101018.09;5031189;28;20696;-65
2023/12/02 09:33:37;;;;;;;74.00;37.17;;;;;;;0.01;85.46;101007.53;5045624;28;20060;-64
2023/12/02 09:36:06;;;;;;;77.27;38.23;;;;;;;-0.37;84.14;101013.44;5047677;28;20041;-63
2023/12/02 09:38:34;;;;;;;71.47;36.20;;;;;;;-0.16;84.76;101026.34;5054911;28;20306;-63
2023/12/02 09:41:02;;;;;;;76.68;37.55;;;;;;;0.02;85.86;101019.19;5046956;28;20049;-63
2023/12/02 09:43:54;;;;;;;71.53;34.70;;;;;;;1.44;81.78;101014.38;5043371;28;20049;-64
2023/12/02 09:46:26;;;;;;;74.57;34.22;;;;;;;0.55;79.23;101015.19;5020191;28;20060;-63
2023/12/02 09:49:34;;;;;;;72.07;35.05;;;;;;;0.17;81.71;101019.50;5044772;28;20053;-61
2023/12/02 09:52:24;;;;;;;74.82;34.33;;;;;;;0.40;81.76;101014.84;5042041;28;20531;-66
2023/12/02 09:55:26;;;;;;;72.30;33.65;;;;;;;0.33;81.16;101016.06;5032207;28;20045;-65
2023/12/02 09:58:13;;;;;;;68.63;33.97;;;;;;;0.32;81.94;101020.66;5041833;28;20068;-63
2023/12/02 10:01:05;;;;;;;70.22;32.83;;;;;;;0.58;81.85;101025.53;5047798;28;20162;-63
2023/12/02 10:03:58;;;;;;;69.63;33.05;;;;;;;0.51;79.95;101024.84;5045448;28;20060;-63
2023/12/02 10:06:47;;;;;;;68.20;34.00;;;;;;;0.45;81.16;101030.41;5043972;28;20050;-63
2023/12/02 10:09:53;;;;;;;66.28;33.33;;;;;;;0.76;80.07;101021.81;5058898;28;20639;-62
2023/12/02 10:12:39;;;;;;;71.03;34.70;;;;;;;0.75;79.70;101028.31;5044769;28;20053;-63
2023/12/02 10:15:09;;;;;;;65.38;32.15;;;;;;;1.15;78.81;101029.09;5061755;28;20048;-61
2023/12/02 10:17:38;;;;;;;66.00;32.45;;;;;;;1.19;78.18;101041.06;5031904;28;20056;-67
2023/12/02 10:20:11;;;;;;;65.75;32.25;;;;;;;1.18;77.15;101036.72;5043036;28;20416;-61
2023/12/02 10:22:49;;;;;;;66.18;33.08;;;;;;;1.06;77.96;101033.25;5043929;28;20530;-66
2023/12/02 10:25:55;;;;;;;69.93;32.45;;;;;;;1.00;78.42;101036.91;5043328;28;20053;-65
2023/12/02 10:28:47;;;;;;;76.05;33.13;;;;;;;0.88;77.66;101036.16;4996500;28;20056;-66
2023/12/02 10:31:23;;;;;;;64.75;31.77;;;;;;;1.40;77.23;101045.78;5039949;28;20065;-66
2023/12/02 10:34:09;;;;;;;66.95;31.83;;;;;;;1.24;76.45;101038.44;5045568;28;20053;-66
2023/12/02 10:36:38;;;;;;;72.88;33.50;;;;;;;1.32;77.09;101038.06;5049699;28;20468;-67
2023/12/02 10:39:11;;;;;;;69.40;33.00;;;;;;;1.49;75.93;101044.31;5031151;28;20045;-62
2023/12/02 10:41:50;;;;;;;64.63;33.85;;;;;;;1.72;75.88;101035.19;5048348;28;20083;-66
2023/12/02 10:44:20;;;;;;;69.15;33.60;;;;;;;1.78;74.96;101032.28;5038644;28;20041;-62
2023/12/02 10:46:50;;;;;;;;;;;;;;;2.00;75.00;101041.34;5043770;28;20044;-64
2023/12/02 10:49:19;;;;;;;64.50;31.50;;;;;;;1.83;74.98;101035.09;5054910;28;20653;-64
2023/12/02 10:51:52;;;;;;;70.47;33.25;;;;;;;2.02;74.97;101046.53;5055078;28;20048;-62
2023/12/02 10:54:25;;;;;;;64.40;31.67;;;;;;;2.11;73.78;101037.69;5045270;28;20132;-63
2023/12/02 10:57:05;;;;;;;64.00;30.33;;;;;;;2.22;73.18;101049.53;5039778;28;20041;-67
2023/12/02 11:00:11;;;;;;;65.38;30.23;;;;;;;1.61;72.55;101045.06;5046726;28;20060;-65
2023/12/02 11:02:54;;;;;;;64.05;30.83;;;;;;;1.67;74.15;101035.13;5054513;28;20055;-67
2023/12/02 11:05:45;;;;;;;59.72;29.95;;;;;;;2.02;72.95;101047.31;5037838;28;20492;-65
2023/12/02 11:08:19;;;;;;;55.88;27.52;;;;;;;1.91;71.17;101045.56;5040850;28;20057;-66
2023/12/02 11:10:48;;;;;;;59.35;28.67;;;;;;;1.76;71.49;101039.06;5027131;28;20045;-65
2023/12/02 11:13:23;;;;;;;60.53;29.63;;;;;;;1.80;72.89;101038.31;5051827;28;20053;-66
2023/12/02 11:16:12;;;;;;;60.60;29.65;;;;;;;2.31;71.27;101039.88;5050436;28;20033;-66
2023/12/02 11:19:13;;;;;;;55.92;28.20;;;;;;;2.29;69.96;101048.28;5049745;28;20041;-66
2023/12/02 11:21:47;;;;;;;53.47;26.33;;;;;;;2.27;69.56;101031.41;5058069;28;20048;-66
2023/12/02 11:24:21;;;;;;;53.45;27.27;;;;;;;2.12;69.81;101035.78;5046458;28;20060;-65
2023/12/02 11:27:12;;;;;;;56.85;27.85;;;;;;;2.45;69.67;101045.75;5052921;28;20069;-65
2023/12/02 11:30:00;;;;;;;52.65;26.83;;;;;;;2.59;68.45;101047.03;5048235;28;20059;-66
2023/12/02 11:32:54;;;;;;;58.28;27.67;;;;;;;2.46;67.82;101050.94;5048421;28;20075;-65
2023/12/02 11:35:25;;;;;;;55.35;27.33;;;;;;;2.71;68.00;101055.88;5049240;28;20048;-65
2023/12/02 11:37:59;;;;;;;56.47;26.83;;;;;;;2.61;66.50;101059.31;5048349;28;20068;-66
2023/12/02 11:40:34;;;;;;;59.53;27.25;;;;;;;2.70;67.03;101067.84;5041435;28;20061;-66
2023/12/02 11:43:33;;;;;;;55.15;25.33;;;;;;;2.59;67.29;101076.94;5048098;28;20048;-65